Time;durP1;ratioP1;P1;durP2;ratioP2;P2;SDS_P1;SDS_P2;PMS_P1;PMS_P2;Temp;Humidity;BMP_temperature;BMP_pressure;BME280_temperature;BME280_humidity;BME280_pressure;Samples;Min_cycle;Max_cycle;Signal;HPM_P1;HPM_P2
2024/04/18 00:02:09;;;;;;;1.20;1.20;;;7.80;99.90;;;;;;5422468;26;20251;-73
2024/04/18 00:04:37;;;;;;;1.30;1.30;;;7.80;99.90;;;;;;5423205;26;20301;-73
2024/04/18 00:07:05;;;;;;;1.25;1.25;;;7.80;99.90;;;;;;5369673;26;20384;-72
2024/04/18 00:09:33;;;;;;;1.30;1.30;;;7.80;99.90;;;;;;5409747;26;20252;-73
2024/04/18 00:12:02;;;;;;;1.38;1.38;;;7.80;99.90;;;;;;5382105;26;20648;-74
2024/04/18 00:14:31;;;;;;;1.23;1.23;;;7.90;99.90;;;;;;5413065;26;20287;-72
2024/04/18 00:16:57;;;;;;;1.30;1.30;;;7.80;99.90;;;;;;5407166;26;20487;-72
2024/04/18 00:19:25;;;;;;;1.20;1.20;;;7.80;99.90;;;;;;5422817;26;20300;-74
2024/04/18 00:21:52;;;;;;;1.08;1.08;;;7.80;99.90;;;;;;5425048;26;20606;-74
2024/04/18 00:24:20;;;;;;;1.40;1.40;;;7.80;99.90;;;;;;5429924;26;20278;-74
2024/04/18 00:26:46;;;;;;;1.50;1.50;;;7.80;99.90;;;;;;5421704;26;20274;-73
2024/04/18 00:29:17;;;;;;;1.20;1.20;;;7.80;99.90;;;;;;5436347;26;20599;-73
2024/04/18 00:31:43;;;;;;;1.30;1.30;;;7.80;99.90;;;;;;5430694;26;20799;-72
2024/04/18 00:34:13;;;;;;;1.27;1.27;;;7.70;99.90;;;;;;5428737;26;20262;-74
2024/04/18 00:36:39;;;;;;;1.30;1.30;;;7.70;99.90;;;;;;5404587;26;20255;-74
2024/04/18 00:39:07;;;;;;;1.30;1.30;;;7.70;99.90;;;;;;5433467;26;20325;-73
2024/04/18 00:41:33;;;;;;;1.20;1.20;;;7.60;99.90;;;;;;5406690;26;20350;-73
2024/04/18 00:44:02;;;;;;;1.20;1.20;;;7.60;99.90;;;;;;5428114;26;20302;-73
2024/04/18 00:46:31;;;;;;;1.40;1.40;;;7.60;99.90;;;;;;5403618;26;20334;-74
2024/04/18 00:49:00;;;;;;;1.17;1.15;;;7.50;99.90;;;;;;5408914;26;20788;-72
2024/04/18 00:51:27;;;;;;;1.27;1.27;;;7.50;99.90;;;;;;5405054;26;20249;-73
2024/04/18 00:53:56;;;;;;;1.48;1.48;;;7.50;99.90;;;;;;5379066;26;20299;-73
2024/04/18 00:56:22;;;;;;;1.30;1.30;;;7.50;99.90;;;;;;5428493;26;20255;-73
2024/04/18 00:58:53;;;;;;;1.38;1.33;;;7.50;99.90;;;;;;5411270;26;20847;-71
2024/04/18 01:01:20;;;;;;;1.23;1.23;;;7.50;99.90;;;;;;5405626;26;20322;-74
2024/04/18 01:03:52;;;;;;;1.30;1.30;;;7.50;99.90;;;;;;5426124;26;20252;-71
2024/04/18 01:06:18;;;;;;;1.60;1.60;;;7.50;99.90;;;;;;5433419;26;20594;-71
2024/04/18 01:08:48;;;;;;;1.30;1.30;;;7.40;99.90;;;;;;5421491;26;20255;-71
2024/04/18 01:11:14;;;;;;;1.42;1.42;;;7.40;99.90;;;;;;5421290;26;20846;-72
2024/04/18 01:13:43;;;;;;;1.30;1.30;;;7.30;99.90;;;;;;5426775;26;20255;-73
2024/04/18 01:16:09;;;;;;;1.35;1.35;;;7.20;99.90;;;;;;5401127;26;20334;-73
2024/04/18 01:18:38;;;;;;;1.40;1.40;;;7.20;99.90;;;;;;5428653;26;20286;-72
2024/04/18 01:21:09;;;;;;;1.20;1.20;;;7.20;99.90;;;;;;5400013;26;20290;-72
2024/04/18 01:23:38;;;;;;;1.40;1.40;;;7.20;99.90;;;;;;5429955;26;20264;-72
2024/04/18 01:26:04;;;;;;;1.33;1.33;;;7.20;99.90;;;;;;5428732;26;20264;-74
2024/04/18 01:28:35;;;;;;;1.40;1.40;;;7.20;99.90;;;;;;5429552;26;23584;-72
2024/04/18 01:31:01;;;;;;;1.40;1.40;;;7.20;99.90;;;;;;5442713;26;20298;-72
2024/04/18 01:33:30;;;;;;;1.55;1.55;;;7.20;99.90;;;;;;5434085;26;20267;-71
2024/04/18 01:35:56;;;;;;;1.38;1.38;;;7.10;99.90;;;;;;5448754;26;20238;-74
2024/04/18 01:38:24;;;;;;;1.30;1.30;;;7.10;99.90;;;;;;5441138;26;20410;-71
2024/04/18 01:40:50;;;;;;;1.50;1.50;;;7.10;99.90;;;;;;5410178;26;20315;-72
2024/04/18 01:43:19;;;;;;;1.40;1.40;;;7.10;99.90;;;;;;5434146;26;20251;-72
2024/04/18 01:45:49;;;;;;;1.60;1.60;;;7.10;99.90;;;;;;5375252;26;20294;-72
2024/04/18 01:48:18;;;;;;;1.60;1.60;;;7.10;99.90;;;;;;5391018;26;20835;-72
2024/04/18 01:50:44;;;;;;;1.50;1.40;;;7.10;99.90;;;;;;5435339;26;20243;-72
2024/04/18 01:53:13;;;;;;;1.50;1.50;;;7.10;99.90;;;;;;5401781;26;20247;-72
2024/04/18 01:55:39;;;;;;;1.60;1.60;;;7.10;99.90;;;;;;5431402;26;20376;-72
2024/04/18 01:58:07;;;;;;;1.50;1.50;;;7.10;99.90;;;;;;5401738;26;20773;-71
2024/04/18 02:00:33;;;;;;;1.60;1.60;;;7.10;99.90;;;;;;5394154;26;20493;-72
2024/04/18 02:03:05;;;;;;;1.55;1.55;;;7.10;99.90;;;;;;5426988;26;20805;-72
2024/04/18 02:05:32;;;;;;;1.58;1.58;;;7.00;99.90;;;;;;5430430;26;20288;-73
2024/04/18 02:08:01;;;;;;;1.35;1.30;;;7.00;99.90;;;;;;5369728;26;20297;-73
2024/04/18 02:10:28;;;;;;;1.52;1.52;;;7.00;99.90;;;;;;5429563;26;20297;-72
2024/04/18 02:12:57;;;;;;;1.33;1.33;;;6.90;99.90;;;;;;5423310;26;20663;-72
2024/04/18 02:15:24;;;;;;;1.50;1.40;;;6.90;99.90;;;;;;5425554;26;20277;-72
2024/04/18 02:17:52;;;;;;;1.67;1.67;;;6.90;99.90;;;;;;5432129;26;20834;-72
2024/04/18 02:20:21;;;;;;;1.45;1.45;;;6.80;99.90;;;;;;5397811;26;20871;-72
2024/04/18 02:22:50;;;;;;;1.70;1.60;;;6.80;99.90;;;;;;5427234;26;21125;-73
2024/04/18 02:25:16;;;;;;;1.50;1.50;;;6.70;99.90;;;;;;5441081;26;20297;-74
2024/04/18 02:27:45;;;;;;;1.50;1.50;;;6.60;99.90;;;;;;5401419;26;20676;-73
2024/04/18 02:30:11;;;;;;;1.50;1.50;;;6.60;99.90;;;;;;5427488;26;20298;-75
2024/04/18 02:32:41;;;;;;;1.65;1.65;;;6.60;99.90;;;;;;5402745;26;20252;-73
2024/04/18 02:35:07;;;;;;;1.40;1.40;;;6.60;99.90;;;;;;5406413;26;20818;-73
2024/04/18 02:37:38;;;;;;;1.40;1.40;;;6.60;99.90;;;;;;5432187;26;20937;-73
2024/04/18 02:40:05;;;;;;;1.52;1.52;;;6.60;99.90;;;;;;5422586;26;20251;-74
2024/04/18 02:42:34;;;;;;;1.60;1.60;;;6.50;99.90;;;;;;5426234;26;20315;-73
2024/04/18 02:45:00;;;;;;;1.65;1.55;;;6.50;99.90;;;;;;5410779;26;20619;-73
2024/04/18 02:47:29;;;;;;;1.70;1.70;;;6.50;99.90;;;;;;5432966;26;20298;-73
2024/04/18 02:49:55;;;;;;;1.80;1.73;;;6.50;99.90;;;;;;5430721;26;20253;-74
2024/04/18 02:52:24;;;;;;;1.50;1.50;;;6.50;99.90;;;;;;5398285;26;20362;-73
2024/04/18 02:54:53;;;;;;;1.70;1.70;;;6.50;99.90;;;;;;5399720;26;20256;-73
2024/04/18 02:57:23;;;;;;;1.48;1.48;;;6.50;99.90;;;;;;5426272;26;20666;-74
2024/04/18 02:59:49;;;;;;;1.70;1.70;;;6.40;99.90;;;;;;5406534;26;20241;-73
2024/04/18 03:02:18;;;;;;;1.60;1.60;;;6.40;99.90;;;;;;5433535;26;20979;-74
2024/04/18 03:04:44;;;;;;;1.48;1.48;;;6.30;99.90;;;;;;5377451;26;20879;-73
2024/04/18 03:07:13;;;;;;;1.45;1.45;;;6.20;99.90;;;;;;5424946;26;20768;-74
2024/04/18 03:09:40;;;;;;;1.40;1.40;;;6.20;99.90;;;;;;5376749;26;20252;-73
2024/04/18 03:12:14;;;;;;;1.70;1.60;;;6.30;99.90;;;;;;5433765;26;20898;-73
2024/04/18 03:14:40;;;;;;;1.58;1.58;;;6.30;99.90;;;;;;5461975;26;20247;-73
2024/04/18 03:17:09;;;;;;;1.60;1.50;;;6.30;99.90;;;;;;5396490;26;20797;-74
2024/04/18 03:19:34;;;;;;;1.50;1.50;;;6.30;99.90;;;;;;5429905;26;20294;-73
2024/04/18 03:22:03;;;;;;;1.70;1.60;;;6.20;99.90;;;;;;5426155;26;20251;-75
2024/04/18 03:24:29;;;;;;;1.48;1.48;;;6.20;99.90;;;;;;5421620;26;20256;-73
2024/04/18 03:26:58;;;;;;;1.80;1.80;;;6.20;99.90;;;;;;5430415;26;20334;-73
2024/04/18 03:29:26;;;;;;;1.50;1.50;;;6.20;99.90;;;;;;5436224;26;20247;-73
2024/04/18 03:31:55;;;;;;;1.58;1.58;;;6.20;99.90;;;;;;5420101;26;20303;-72
2024/04/18 03:34:21;;;;;;;1.60;1.60;;;6.10;99.90;;;;;;5428646;26;20319;-72
2024/04/18 03:36:51;;;;;;;1.80;1.70;;;6.10;99.90;;;;;;5424994;26;21036;-72
2024/04/18 03:39:20;;;;;;;1.50;1.50;;;6.10;99.90;;;;;;5408334;26;20275;-72
2024/04/18 03:41:49;;;;;;;1.60;1.60;;;6.10;99.90;;;;;;5432343;26;20760;-71
2024/04/18 03:44:18;;;;;;;1.55;1.55;;;6.10;99.90;;;;;;5426752;26;20655;-72
2024/04/18 03:46:50;;;;;;;1.83;1.73;;;6.10;99.90;;;;;;5431357;26;20693;-71
2024/04/18 03:49:19;;;;;;;2.55;1.85;;;6.10;99.90;;;;;;5382419;26;20248;-72
2024/04/18 03:51:45;;;;;;;1.70;1.70;;;6.00;99.90;;;;;;5380164;26;20609;-73
2024/04/18 03:54:14;;;;;;;1.38;1.38;;;5.90;99.90;;;;;;5430274;26;20327;-72
2024/04/18 03:56:40;;;;;;;2.17;2.03;;;5.80;99.90;;;;;;5399287;26;20263;-72
2024/04/18 03:59:08;;;;;;;1.70;1.60;;;5.80;99.90;;;;;;5421137;26;20329;-73
2024/04/18 04:01:36;;;;;;;2.00;1.75;;;5.80;99.90;;;;;;5408390;26;20255;-75
2024/04/18 04:04:08;;;;;;;1.80;1.80;;;5.70;99.90;;;;;;5426821;26;20310;-74
2024/04/18 04:06:34;;;;;;;2.00;1.90;;;5.70;99.90;;;;;;5436321;26;20368;-76
2024/04/18 04:09:03;;;;;;;1.90;1.80;;;5.60;99.90;;;;;;5399894;26;20270;-75
2024/04/18 04:11:29;;;;;;;1.90;1.90;;;5.60;99.90;;;;;;5405668;26;20251;-74
2024/04/18 04:13:58;;;;;;;2.05;1.95;;;5.60;99.90;;;;;;5400734;26;20260;-73
2024/04/18 04:16:24;;;;;;;1.90;1.80;;;5.50;99.90;;;;;;5423435;26;20639;-73
2024/04/18 04:18:54;;;;;;;2.00;1.90;;;5.50;99.90;;;;;;5408166;26;20308;-73
2024/04/18 04:21:24;;;;;;;1.80;1.80;;;5.60;99.90;;;;;;5425270;26;20324;-74
2024/04/18 04:23:52;;;;;;;1.80;1.70;;;5.60;99.90;;;;;;5432559;26;20279;-73
2024/04/18 04:26:19;;;;;;;1.98;1.88;;;5.60;99.90;;;;;;5396061;26;20275;-74
2024/04/18 04:28:48;;;;;;;1.98;1.88;;;5.70;99.90;;;;;;5429704;26;20260;-74
2024/04/18 04:31:14;;;;;;;2.10;2.00;;;5.70;99.90;;;;;;5402360;26;20263;-72
2024/04/18 04:33:43;;;;;;;1.83;1.75;;;5.70;99.90;;;;;;5405074;26;20290;-74
2024/04/18 04:36:09;;;;;;;2.00;1.90;;;5.80;99.90;;;;;;5427359;26;20282;-77
2024/04/18 04:38:40;;;;;;;1.98;1.90;;;5.80;99.90;;;;;;5407772;26;20330;-74
2024/04/18 04:41:07;;;;;;;1.52;1.52;;;5.80;99.90;;;;;;5431713;26;21055;-74
2024/04/18 04:43:38;;;;;;;2.10;2.00;;;5.80;99.90;;;;;;5406600;26;20259;-74
2024/04/18 04:46:05;;;;;;;1.90;1.80;;;5.90;99.90;;;;;;5424211;26;20259;-74
2024/04/18 04:48:33;;;;;;;1.80;1.70;;;5.90;99.90;;;;;;5415257;26;20269;-75
2024/04/18 04:51:01;;;;;;;1.70;1.70;;;6.00;99.90;;;;;;5399645;26;20767;-76
2024/04/18 04:53:30;;;;;;;1.67;1.67;;;6.00;99.90;;;;;;5429858;26;20256;-73
2024/04/18 04:55:59;;;;;;;1.60;1.60;;;6.00;99.90;;;;;;5400889;26;20315;-74
2024/04/18 04:58:28;;;;;;;1.90;1.80;;;6.10;99.90;;;;;;5427191;26;20841;-74
2024/04/18 05:00:55;;;;;;;1.67;1.58;;;6.10;99.90;;;;;;5404455;26;20790;-73
2024/04/18 05:03:25;;;;;;;1.80;1.80;;;6.20;99.90;;;;;;5431914;26;20251;-73
2024/04/18 05:05:51;;;;;;;1.80;1.80;;;6.20;99.90;;;;;;5411559;26;20228;-74
2024/04/18 05:08:20;;;;;;;1.77;1.77;;;6.20;99.90;;;;;;5430222;26;20267;-74
2024/04/18 05:10:47;;;;;;;1.60;1.60;;;6.30;99.90;;;;;;5426385;26;20259;-74
2024/04/18 05:13:19;;;;;;;1.98;1.98;;;6.30;99.90;;;;;;5435921;26;20290;-73
2024/04/18 05:15:45;;;;;;;1.83;1.73;;;6.30;99.90;;;;;;5417091;26;21119;-73
2024/04/18 05:18:15;;;;;;;1.90;1.85;;;6.40;99.90;;;;;;5424563;26;20950;-73
2024/04/18 05:20:41;;;;;;;2.13;1.90;;;6.50;99.90;;;;;;5401448;26;20324;-73
2024/04/18 05:23:10;;;;;;;2.05;1.88;;;6.50;99.90;;;;;;5401400;26;20259;-73
2024/04/18 05:25:38;;;;;;;1.75;1.75;;;6.60;99.90;;;;;;5430065;26;20544;-73
2024/04/18 05:28:19;;;;;;;1.80;1.80;;;6.60;99.90;;;;;;5400823;26;20255;-74
2024/04/18 05:31:01;;;;;;;1.98;1.90;;;6.60;99.90;;;;;;5401609;26;20301;-74
2024/04/18 05:33:30;;;;;;;2.10;2.00;;;6.60;99.90;;;;;;5397522;26;20283;-78
2024/04/18 05:35:59;;;;;;;2.65;2.30;;;6.60;99.90;;;;;;5429826;26;20240;-77
2024/04/18 05:38:27;;;;;;;1.90;1.80;;;6.60;99.90;;;;;;5432340;26;20247;-72
2024/04/18 05:40:56;;;;;;;2.17;2.03;;;6.60;99.90;;;;;;5433066;26;20306;-75
2024/04/18 05:43:25;;;;;;;2.10;2.00;;;6.70;99.90;;;;;;5401395;26;20309;-73
2024/04/18 05:45:56;;;;;;;1.95;1.85;;;6.90;99.90;;;;;;5405289;26;22784;-73
2024/04/18 05:48:25;;;;;;;2.40;2.20;;;7.10;99.90;;;;;;5425432;26;20365;-74
2024/04/18 05:50:54;;;;;;;2.70;2.05;;;7.30;99.90;;;;;;5430028;26;20277;-73
2024/04/18 05:53:22;;;;;;;2.58;1.80;;;7.40;99.90;;;;;;5424085;26;20259;-72
2024/04/18 05:55:51;;;;;;;2.30;2.03;;;7.40;99.90;;;;;;5427076;26;20776;-72
2024/04/18 05:58:20;;;;;;;2.15;2.05;;;7.40;99.90;;;;;;5428964;26;20248;-72
2024/04/18 06:00:49;;;;;;;1.92;1.83;;;7.50;99.90;;;;;;5434441;26;20243;-72
2024/04/18 06:03:20;;;;;;;2.00;1.88;;;7.60;99.90;;;;;;5383353;26;20263;-74
2024/04/18 06:05:49;;;;;;;2.10;2.00;;;7.90;99.90;;;;;;5401779;26;20293;-73
2024/04/18 06:08:19;;;;;;;1.75;1.65;;;8.30;99.90;;;;;;5405364;26;20362;-74
2024/04/18 06:10:48;;;;;;;1.73;1.63;;;8.60;99.90;;;;;;5432691;26;20740;-73
2024/04/18 06:13:17;;;;;;;1.40;1.40;;;8.70;99.90;;;;;;5398644;26;20274;-73
2024/04/18 06:15:46;;;;;;;1.83;1.73;;;8.80;99.90;;;;;;5429236;26;20255;-72
2024/04/18 06:18:16;;;;;;;1.70;1.70;;;8.90;99.90;;;;;;5405171;26;20322;-73
2024/04/18 06:20:50;;;;;;;1.85;1.75;;;9.00;99.90;;;;;;5433328;26;20227;-73
2024/04/18 06:23:19;;;;;;;2.10;1.85;;;9.10;99.90;;;;;;5431963;26;20250;-73
2024/04/18 06:25:48;;;;;;;1.70;1.60;;;9.20;99.90;;;;;;5407842;26;20251;-73
2024/04/18 06:28:19;;;;;;;1.90;1.80;;;9.30;99.90;;;;;;5424657;26;20298;-73
2024/04/18 06:30:48;;;;;;;1.90;1.80;;;9.20;99.90;;;;;;5437998;26;20254;-74
2024/04/18 06:33:17;;;;;;;1.80;1.70;;;9.20;99.90;;;;;;5429094;26;20251;-74
2024/04/18 06:35:48;;;;;;;3.50;1.77;;;9.20;99.90;;;;;;5403738;26;20234;-73
2024/04/18 06:38:17;;;;;;;1.80;1.70;;;9.20;99.90;;;;;;5403166;26;20251;-73
2024/04/18 06:40:47;;;;;;;1.90;1.80;;;9.10;99.90;;;;;;5433026;26;20267;-74
2024/04/18 06:43:15;;;;;;;1.92;1.83;;;9.10;99.90;;;;;;5421994;26;20305;-73
2024/04/18 06:45:46;;;;;;;1.60;1.50;;;9.10;99.90;;;;;;5439966;26;20255;-74
2024/04/18 06:48:15;;;;;;;1.88;1.77;;;9.20;99.90;;;;;;5352575;26;20301;-73
2024/04/18 06:50:43;;;;;;;1.70;1.60;;;9.40;99.90;;;;;;5437646;26;20277;-73
2024/04/18 06:53:15;;;;;;;1.98;1.80;;;9.50;99.90;;;;;;5425039;26;20585;-75
2024/04/18 06:55:44;;;;;;;1.58;1.58;;;9.70;99.90;;;;;;5427294;26;20256;-73
2024/04/18 06:58:13;;;;;;;1.88;1.77;;;9.70;99.90;;;;;;5434351;26;21115;-74
2024/04/18 07:00:42;;;;;;;1.80;1.70;;;9.70;99.90;;;;;;5399665;26;20252;-74
2024/04/18 07:03:13;;;;;;;1.88;1.70;;;9.70;99.90;;;;;;5416280;26;20255;-74
2024/04/18 07:05:39;;;;;;;1.50;1.50;;;9.70;99.90;;;;;;5422987;26;20240;-73
2024/04/18 07:08:09;;;;;;;1.85;1.75;;;9.80;99.90;;;;;;5392528;26;20796;-72
2024/04/18 07:10:43;;;;;;;2.58;1.60;;;9.90;99.90;;;;;;5407934;26;20259;-76
2024/04/18 07:13:12;;;;;;;1.52;1.52;;;9.90;99.90;;;;;;5391304;26;20354;-73
2024/04/18 07:15:41;;;;;;;1.50;1.45;;;9.80;99.90;;;;;;5377411;26;20289;-73
2024/04/18 07:18:10;;;;;;;1.83;1.73;;;9.60;99.90;;;;;;5397933;26;20263;-73
2024/04/18 07:20:40;;;;;;;1.80;1.65;;;9.60;99.90;;;;;;5368455;26;20240;-72
2024/04/18 07:23:09;;;;;;;1.25;1.25;;;9.50;99.90;;;;;;5414976;26;20590;-73
2024/04/18 07:25:41;;;;;;;1.48;1.48;;;9.50;99.90;;;;;;5399606;26;20252;-73
2024/04/18 07:28:10;;;;;;;1.70;1.60;;;9.50;99.90;;;;;;5425331;26;20245;-73
2024/04/18 07:30:39;;;;;;;1.58;1.48;;;9.50;99.90;;;;;;5421612;26;20286;-76
2024/04/18 07:33:08;;;;;;;1.83;1.73;;;9.60;99.90;;;;;;5420613;26;20251;-73
2024/04/18 07:35:37;;;;;;;1.80;1.70;;;9.60;99.90;;;;;;5414936;26;20239;-75
2024/04/18 07:38:06;;;;;;;1.80;1.70;;;9.70;99.90;;;;;;5394076;26;20287;-73
2024/04/18 07:40:35;;;;;;;1.92;1.83;;;9.90;99.90;;;;;;5421424;26;20342;-75
2024/04/18 07:43:06;;;;;;;1.73;1.63;;;9.80;99.90;;;;;;5396579;26;20799;-73
2024/04/18 07:45:35;;;;;;;1.55;1.45;;;9.70;99.90;;;;;;5419784;26;20256;-74
2024/04/18 07:48:06;;;;;;;1.40;1.40;;;9.70;99.90;;;;;;5400334;26;20259;-73
2024/04/18 07:50:34;;;;;;;1.75;1.65;;;9.70;99.90;;;;;;5414420;26;20283;-73
2024/04/18 07:53:03;;;;;;;1.40;1.40;;;9.80;99.90;;;;;;5399172;26;20286;-74
2024/04/18 07:55:32;;;;;;;2.30;2.20;;;9.90;99.90;;;;;;5403048;26;20262;-74
2024/04/18 07:58:01;;;;;;;2.22;1.90;;;9.90;99.90;;;;;;5374476;26;20335;-73
2024/04/18 08:00:33;;;;;;;1.40;1.40;;;9.90;99.90;;;;;;5411630;26;20256;-73
2024/04/18 08:03:01;;;;;;;1.50;1.40;;;10.00;99.90;;;;;;5419325;26;20890;-73
2024/04/18 08:05:31;;;;;;;1.80;1.70;;;10.00;99.90;;;;;;5427110;26;20291;-74
2024/04/18 08:07:59;;;;;;;1.70;1.60;;;10.10;99.90;;;;;;5423842;26;20417;-74
2024/04/18 08:10:28;;;;;;;1.73;1.63;;;10.20;99.90;;;;;;5401529;26;20255;-74
2024/04/18 08:12:57;;;;;;;1.60;1.58;;;10.20;99.90;;;;;;5420245;26;20259;-73
2024/04/18 08:15:25;;;;;;;1.70;1.60;;;10.30;99.90;;;;;;5423463;26;20401;-76
2024/04/18 08:17:57;;;;;;;1.60;1.50;;;10.40;99.90;;;;;;5420862;26;20585;-74
2024/04/18 08:20:25;;;;;;;1.60;1.50;;;10.50;99.90;;;;;;5411047;26;20688;-74
2024/04/18 08:22:55;;;;;;;1.70;1.60;;;10.70;99.90;;;;;;5430309;26;20263;-74
2024/04/18 08:25:25;;;;;;;1.92;1.83;;;10.80;99.90;;;;;;5372552;26;20259;-75
2024/04/18 08:27:54;;;;;;;1.92;1.30;;;11.00;99.90;;;;;;5394660;26;20298;-74
2024/04/18 08:30:23;;;;;;;1.70;1.60;;;11.10;99.90;;;;;;5414998;26;20286;-75
2024/04/18 08:32:51;;;;;;;1.52;1.42;;;11.10;99.90;;;;;;5384437;26;20318;-76
2024/04/18 08:35:23;;;;;;;2.33;1.75;;;11.10;99.90;;;;;;5399463;26;20251;-74
2024/04/18 08:37:50;;;;;;;1.60;1.50;;;11.00;99.90;;;;;;5423527;26;20746;-75
2024/04/18 08:40:19;;;;;;;1.55;1.45;;;11.00;99.90;;;;;;5420093;26;20260;-75
2024/04/18 08:42:48;;;;;;;1.50;1.40;;;11.00;99.90;;;;;;5395234;26;20499;-73
2024/04/18 08:45:18;;;;;;;1.40;1.40;;;11.10;99.90;;;;;;5389860;26;20240;-75
2024/04/18 08:47:50;;;;;;;1.42;1.30;;;11.30;99.90;;;;;;5396853;26;20255;-74
2024/04/18 08:50:20;;;;;;;1.67;1.58;;;11.40;99.90;;;;;;5417734;26;20259;-74
2024/04/18 08:52:54;;;;;;;3.13;1.50;;;11.50;99.90;;;;;;5401127;26;20255;-73
2024/04/18 08:55:23;;;;;;;1.73;1.52;;;11.60;99.90;;;;;;5424430;26;20754;-74
2024/04/18 08:57:58;;;;;;;1.52;1.42;;;11.70;99.90;;;;;;5399858;26;20266;-73
2024/04/18 09:00:28;;;;;;;1.42;1.42;;;11.70;99.90;;;;;;5420213;26;20258;-73
2024/04/18 09:02:57;;;;;;;1.30;1.10;;;11.80;99.90;;;;;;5389574;26;20300;-74
2024/04/18 09:05:26;;;;;;;2.13;1.60;;;11.90;99.90;;;;;;5421298;26;20282;-73
2024/04/18 09:07:57;;;;;;;1.65;1.55;;;12.00;99.90;;;;;;5419875;26;20255;-75
2024/04/18 09:10:28;;;;;;;1.50;1.40;;;12.10;99.90;;;;;;5370709;26;20260;-74
2024/04/18 09:12:57;;;;;;;1.50;1.23;;;12.10;99.90;;;;;;5422705;26;20247;-74
2024/04/18 09:15:26;;;;;;;1.35;1.33;;;12.20;99.90;;;;;;5394363;26;20264;-73
2024/04/18 09:18:02;;;;;;;1.30;1.20;;;12.30;99.90;;;;;;5419318;26;20301;-76
2024/04/18 09:20:33;;;;;;;1.40;1.30;;;12.50;99.90;;;;;;5412571;26;20725;-74
2024/04/18 09:23:05;;;;;;;1.30;1.30;;;12.60;99.90;;;;;;5420309;26;20363;-75
2024/04/18 09:25:34;;;;;;;1.30;1.30;;;12.70;99.90;;;;;;5420370;26;20679;-75
2024/04/18 09:28:03;;;;;;;1.50;1.40;;;12.70;99.90;;;;;;5416186;26;20256;-74
2024/04/18 09:30:32;;;;;;;1.25;1.25;;;12.70;99.90;;;;;;5425266;26;20283;-74
2024/04/18 09:33:03;;;;;;;1.60;1.50;;;12.70;99.90;;;;;;5419512;26;20283;-74
2024/04/18 09:35:34;;;;;;;1.30;1.20;;;12.70;99.90;;;;;;5411652;26;20248;-73
2024/04/18 09:38:10;;;;;;;1.35;1.25;;;12.80;99.90;;;;;;5401939;26;20314;-74
2024/04/18 09:40:44;;;;;;;1.40;1.30;;;12.80;99.90;;;;;;5416732;26;20573;-74
2024/04/18 09:43:24;;;;;;;1.40;1.30;;;12.90;99.90;;;;;;5420896;26;20252;-74
2024/04/18 09:46:01;;;;;;;1.35;1.27;;;12.80;99.90;;;;;;5416130;26;20252;-73
2024/04/18 09:48:31;;;;;;;1.55;1.30;;;12.80;99.90;;;;;;5420463;26;20803;-76
2024/04/18 09:51:00;;;;;;;1.08;1.08;;;12.90;99.90;;;;;;5366729;26;20766;-76
2024/04/18 09:53:32;;;;;;;1.48;1.38;;;13.10;99.90;;;;;;5417370;26;20255;-76
2024/04/18 09:56:02;;;;;;;1.52;1.20;;;13.20;99.90;;;;;;5415777;26;20251;-75
2024/04/18 09:58:31;;;;;;;1.20;1.20;;;13.20;99.90;;;;;;5423044;26;20251;-79
2024/04/18 10:01:01;;;;;;;1.40;1.30;;;13.20;99.90;;;;;;5411883;26;20271;-73
2024/04/18 10:03:31;;;;;;;1.50;1.40;;;13.40;99.90;;;;;;5423719;26;20309;-75
2024/04/18 10:06:03;;;;;;;1.85;1.35;;;13.50;99.90;;;;;;5420453;26;20240;-74
2024/04/18 10:08:39;;;;;;;1.30;1.30;;;13.70;99.90;;;;;;5415125;26;20254;-73
2024/04/18 10:11:08;;;;;;;1.27;1.27;;;13.60;99.90;;;;;;5394805;26;20256;-74
2024/04/18 10:13:39;;;;;;;1.13;1.13;;;13.60;99.90;;;;;;5389063;26;20298;-78
2024/04/18 10:16:11;;;;;;;1.17;1.17;;;13.70;99.90;;;;;;5422993;26;20251;-74
2024/04/18 10:18:41;;;;;;;0.90;0.90;;;14.00;99.90;;;;;;5427202;26;20256;-75
2024/04/18 10:21:14;;;;;;;1.23;1.23;;;14.20;99.90;;;;;;5418390;26;20440;-74
2024/04/18 10:23:55;;;;;;;1.27;1.20;;;14.20;98.70;;;;;;5393207;26;20615;-73
2024/04/18 10:26:25;;;;;;;1.00;1.00;;;14.30;99.30;;;;;;5403470;26;20775;-77
2024/04/18 10:28:55;;;;;;;1.20;1.13;;;14.20;96.90;;;;;;5397283;26;20259;-76
2024/04/18 10:31:29;;;;;;;1.10;1.10;;;14.20;95.90;;;;;;5420699;26;20637;-74
2024/04/18 10:33:59;;;;;;;1.20;1.13;;;14.10;95.50;;;;;;5413333;26;20296;-74
2024/04/18 10:36:29;;;;;;;1.30;1.20;;;14.00;95.20;;;;;;5417217;26;20286;-77
2024/04/18 10:39:00;;;;;;;1.95;0.98;;;13.90;94.90;;;;;;5416780;26;20256;-78
2024/04/18 10:41:29;;;;;;;1.55;1.10;;;14.00;95.20;;;;;;5430149;26;20247;-74
2024/04/18 10:43:58;;;;;;;0.98;0.98;;;14.10;94.40;;;;;;5425550;26;20555;-78
2024/04/18 10:46:29;;;;;;;1.70;1.10;;;14.00;95.40;;;;;;5423450;26;20380;-74
2024/04/18 10:48:56;;;;;;;2.35;1.13;;;14.00;95.30;;;;;;5418940;26;20298;-78
2024/04/18 10:51:29;;;;;;;1.10;1.10;;;13.80;95.80;;;;;;5396086;26;20719;-76
2024/04/18 10:54:01;;;;;;;1.20;1.20;;;13.80;95.40;;;;;;5391013;26;20256;-74
2024/04/18 10:56:30;;;;;;;1.00;1.00;;;13.80;96.10;;;;;;5415878;26;20254;-74
2024/04/18 10:59:00;;;;;;;2.13;1.17;;;13.80;96.70;;;;;;5430780;26;20255;-76
2024/04/18 11:01:31;;;;;;;1.10;1.10;;;13.70;95.80;;;;;;5421611;26;20286;-75
2024/04/18 11:04:00;;;;;;;1.42;1.00;;;13.60;95.80;;;;;;5418796;26;20267;-75
2024/04/18 11:06:29;;;;;;;1.30;1.20;;;13.80;97.40;;;;;;5434375;26;20255;-73
2024/04/18 11:09:02;;;;;;;0.98;0.98;;;13.90;95.70;;;;;;5418021;26;20622;-74
2024/04/18 11:11:33;;;;;;;1.30;1.30;;;13.90;96.40;;;;;;5429407;26;20255;-74
2024/04/18 11:14:03;;;;;;;1.38;1.38;;;14.00;95.70;;;;;;5403592;26;20324;-74
2024/04/18 11:16:33;;;;;;;1.15;1.00;;;14.20;95.00;;;;;;5420195;26;20359;-76
2024/04/18 11:19:03;;;;;;;2.83;1.20;;;14.30;96.00;;;;;;5416509;26;20293;-75
2024/04/18 11:21:32;;;;;;;1.30;1.20;;;14.30;93.90;;;;;;5417825;26;21724;-73
2024/04/18 11:24:04;;;;;;;1.58;1.08;;;14.20;94.30;;;;;;5420847;26;20259;-74
2024/04/18 11:26:32;;;;;;;1.00;1.00;;;14.20;95.00;;;;;;5431797;26;20298;-79
2024/04/18 11:29:06;;;;;;;1.33;1.20;;;14.40;95.60;;;;;;5430657;26;20255;-74
2024/04/18 11:31:34;;;;;;;1.00;1.00;;;14.30;92.80;;;;;;5404331;26;20275;-75
2024/04/18 11:34:04;;;;;;;1.63;1.27;;;14.20;91.90;;;;;;5419616;26;20263;-79
2024/04/18 11:36:33;;;;;;;1.52;1.08;;;14.10;91.90;;;;;;5427781;26;20823;-73
2024/04/18 11:39:04;;;;;;;0.95;0.95;;;14.10;91.80;;;;;;5400007;26;20850;-76
2024/04/18 11:41:33;;;;;;;0.90;0.90;;;14.20;93.30;;;;;;5428467;26;20277;-78
2024/04/18 11:44:04;;;;;;;1.08;1.00;;;14.40;91.80;;;;;;5367123;26;20620;-74
2024/04/18 11:46:33;;;;;;;1.27;1.17;;;14.30;91.80;;;;;;5427893;26;20282;-74
2024/04/18 11:49:02;;;;;;;1.27;1.17;;;14.20;92.00;;;;;;5425418;26;20252;-75
2024/04/18 11:51:30;;;;;;;1.73;1.10;;;14.10;92.00;;;;;;5411159;26;20302;-78
2024/04/18 11:53:59;;;;;;;1.00;1.00;;;14.20;93.00;;;;;;5421739;26;20259;-75
2024/04/18 11:56:31;;;;;;;1.30;1.13;;;14.30;92.80;;;;;;5402250;26;20336;-74
2024/04/18 11:59:02;;;;;;;1.90;1.00;;;14.50;91.20;;;;;;5429783;26;20302;-74
2024/04/18 12:01:31;;;;;;;1.95;1.02;;;14.50;91.60;;;;;;5399911;26;20247;-73
2024/04/18 12:04:00;;;;;;;1.80;1.05;;;14.60;88.10;;;;;;5421603;26;20264;-75
2024/04/18 12:06:29;;;;;;;1.10;1.10;;;14.60;90.70;;;;;;5427967;26;20302;-77
2024/04/18 12:08:59;;;;;;;1.00;1.00;;;14.70;90.20;;;;;;5414738;26;20665;-76
2024/04/18 12:11:31;;;;;;;0.88;0.88;;;14.80;90.00;;;;;;5417954;26;20256;-77
2024/04/18 12:14:00;;;;;;;1.00;1.00;;;15.00;84.90;;;;;;5396819;26;20267;-77
2024/04/18 12:16:30;;;;;;;1.70;0.82;;;15.00;86.80;;;;;;5413271;26;20304;-75
2024/04/18 12:18:59;;;;;;;0.75;0.75;;;15.10;86.90;;;;;;5394093;26;20333;-73
2024/04/18 12:21:27;;;;;;;0.85;0.85;;;15.10;86.40;;;;;;5401597;26;20301;-73
2024/04/18 12:23:56;;;;;;;0.70;0.70;;;15.10;87.60;;;;;;5429308;26;20260;-76
2024/04/18 12:26:26;;;;;;;0.88;0.88;;;15.20;87.90;;;;;;5423117;26;20293;-77
2024/04/18 12:28:57;;;;;;;0.82;0.82;;;15.10;83.20;;;;;;5404332;26;20263;-76
2024/04/18 12:31:26;;;;;;;0.98;0.98;;;14.80;82.80;;;;;;5430608;26;20293;-74
2024/04/18 12:33:55;;;;;;;1.00;0.90;;;14.60;81.00;;;;;;5415161;26;20306;-77
2024/04/18 12:36:25;;;;;;;1.15;1.02;;;14.50;83.10;;;;;;5369147;26;20259;-74
2024/04/18 12:38:54;;;;;;;1.75;1.10;;;14.60;86.30;;;;;;5421180;26;20290;-76
2024/04/18 12:41:22;;;;;;;0.98;0.90;;;14.60;85.20;;;;;;5423516;26;20301;-75
2024/04/18 12:43:51;;;;;;;2.28;0.93;;;14.50;80.30;;;;;;5428417;26;20673;-77
2024/04/18 12:46:22;;;;;;;1.70;0.95;;;14.30;80.80;;;;;;5421147;26;20633;-77
2024/04/18 12:48:51;;;;;;;0.80;0.80;;;14.20;83.50;;;;;;5377917;26;20759;-74
2024/04/18 12:51:21;;;;;;;0.90;0.90;;;14.40;86.00;;;;;;5431961;26;20361;-76
2024/04/18 12:53:49;;;;;;;0.80;0.80;;;14.40;85.60;;;;;;5401614;26;20616;-79
2024/04/18 12:56:19;;;;;;;0.80;0.80;;;14.60;85.40;;;;;;5423314;26;20262;-75
2024/04/18 12:58:47;;;;;;;0.90;0.90;;;14.70;83.50;;;;;;5421905;26;20264;-79
2024/04/18 13:01:16;;;;;;;0.93;0.80;;;14.80;85.70;;;;;;5405649;26;20251;-78
2024/04/18 13:03:48;;;;;;;0.80;0.80;;;14.90;81.80;;;;;;5415164;26;20260;-76